sensor_id;sensor_type;location;lat;lon;timestamp;temperature;humidity
7232;DHT22;3657;49.630;11.018;2023-03-26T00:01:06;8.30;99.90
7232;DHT22;3657;49.630;11.018;2023-03-26T00:03:34;8.30;99.90
7232;DHT22;3657;49.630;11.018;2023-03-26T00:06:03;8.30;99.90
7232;DHT22;3657;49.630;11.018;2023-03-26T00:08:33;8.30;99.90
7232;DHT22;3657;49.630;11.018;2023-03-26T00:11:00;8.30;99.90
7232;DHT22;3657;49.630;11.018;2023-03-26T00:13:28;8.30;99.90
7232;DHT22;3657;49.630;11.018;2023-03-26T00:15:55;8.30;99.90
7232;DHT22;3657;49.630;11.018;2023-03-26T00:18:22;8.30;99.90
7232;DHT22;3657;49.630;11.018;2023-03-26T00:20:54;8.30;99.90
7232;DHT22;3657;49.630;11.018;2023-03-26T00:23:21;8.20;99.90
7232;DHT22;3657;49.630;11.018;2023-03-26T00:25:49;8.20;99.90
7232;DHT22;3657;49.630;11.018;2023-03-26T00:28:16;8.20;99.90
7232;DHT22;3657;49.630;11.018;2023-03-26T00:30:46;8.20;99.90
7232;DHT22;3657;49.630;11.018;2023-03-26T00:33:13;8.20;99.90
7232;DHT22;3657;49.630;11.018;2023-03-26T00:35:42;8.20;99.90
7232;DHT22;3657;49.630;11.018;2023-03-26T00:38:11;8.20;99.90
7232;DHT22;3657;49.630;11.018;2023-03-26T00:40:38;8.20;99.90
7232;DHT22;3657;49.630;11.018;2023-03-26T00:43:10;8.20;99.90
7232;DHT22;3657;49.630;11.018;2023-03-26T00:45:44;8.20;99.90
7232;DHT22;3657;49.630;11.018;2023-03-26T00:48:11;8.20;99.90
7232;DHT22;3657;49.630;11.018;2023-03-26T00:50:38;8.20;99.90
7232;DHT22;3657;49.630;11.018;2023-03-26T00:53:05;8.10;99.90
7232;DHT22;3657;49.630;11.018;2023-03-26T00:55:33;8.10;99.90
7232;DHT22;3657;49.630;11.018;2023-03-26T00:58:00;8.10;99.90
7232;DHT22;3657;49.630;11.018;2023-03-26T01:00:30;8.10;99.90
7232;DHT22;3657;49.630;11.018;2023-03-26T01:02:59;8.10;99.90
7232;DHT22;3657;49.630;11.018;2023-03-26T01:05:45;8.10;99.90
7232;DHT22;3657;49.630;11.018;2023-03-26T01:08:18;8.10;99.90
7232;DHT22;3657;49.630;11.018;2023-03-26T01:10:48;8.10;99.90
7232;DHT22;3657;49.630;11.018;2023-03-26T01:13:18;8.10;99.90
7232;DHT22;3657;49.630;11.018;2023-03-26T01:15:47;8.10;99.90
7232;DHT22;3657;49.630;11.018;2023-03-26T01:18:17;8.10;99.90
7232;DHT22;3657;49.630;11.018;2023-03-26T01:20:45;8.10;99.90
7232;DHT22;3657;49.630;11.018;2023-03-26T01:23:19;8.10;99.90
7232;DHT22;3657;49.630;11.018;2023-03-26T01:25:55;8.10;99.90
7232;DHT22;3657;49.630;11.018;2023-03-26T01:28:26;8.10;99.90
7232;DHT22;3657;49.630;11.018;2023-03-26T01:30:59;8.10;99.90
7232;DHT22;3657;49.630;11.018;2023-03-26T01:33:37;8.10;99.90
7232;DHT22;3657;49.630;11.018;2023-03-26T01:36:09;8.10;99.90
7232;DHT22;3657;49.630;11.018;2023-03-26T01:38:46;8.10;99.90
7232;DHT22;3657;49.630;11.018;2023-03-26T01:41:20;8.10;99.90
7232;DHT22;3657;49.630;11.018;2023-03-26T01:43:53;8.10;99.90
7232;DHT22;3657;49.630;11.018;2023-03-26T01:46:21;8.10;99.90
7232;DHT22;3657;49.630;11.018;2023-03-26T01:48:52;8.00;99.90
7232;DHT22;3657;49.630;11.018;2023-03-26T01:51:26;8.00;99.90
7232;DHT22;3657;49.630;11.018;2023-03-26T01:53:54;8.00;99.90
7232;DHT22;3657;49.630;11.018;2023-03-26T01:56:27;8.00;99.90
7232;DHT22;3657;49.630;11.018;2023-03-26T01:59:08;8.00;99.90
7232;DHT22;3657;49.630;11.018;2023-03-26T02:01:42;8.00;99.90
7232;DHT22;3657;49.630;11.018;2023-03-26T02:04:18;8.00;99.90
7232;DHT22;3657;49.630;11.018;2023-03-26T02:06:51;8.00;99.90
7232;DHT22;3657;49.630;11.018;2023-03-26T02:09:23;8.00;99.90
7232;DHT22;3657;49.630;11.018;2023-03-26T02:11:53;8.00;99.90
7232;DHT22;3657;49.630;11.018;2023-03-26T02:14:20;7.90;99.90
7232;DHT22;3657;49.630;11.018;2023-03-26T02:16:47;7.90;99.90
7232;DHT22;3657;49.630;11.018;2023-03-26T02:19:16;7.90;99.90
7232;DHT22;3657;49.630;11.018;2023-03-26T02:21:46;7.90;99.90
7232;DHT22;3657;49.630;11.018;2023-03-26T02:24:16;7.90;99.90
7232;DHT22;3657;49.630;11.018;2023-03-26T02:26:43;7.90;99.90
7232;DHT22;3657;49.630;11.018;2023-03-26T02:29:12;7.90;99.90
7232;DHT22;3657;49.630;11.018;2023-03-26T02:31:39;7.90;99.90
7232;DHT22;3657;49.630;11.018;2023-03-26T02:34:07;7.90;99.90
7232;DHT22;3657;49.630;11.018;2023-03-26T02:36:34;7.80;99.90
7232;DHT22;3657;49.630;11.018;2023-03-26T02:39:01;7.80;99.90
7232;DHT22;3657;49.630;11.018;2023-03-26T02:41:28;7.80;99.90
7232;DHT22;3657;49.630;11.018;2023-03-26T02:43:54;7.80;99.90
7232;DHT22;3657;49.630;11.018;2023-03-26T02:46:22;7.80;99.90
7232;DHT22;3657;49.630;11.018;2023-03-26T02:48:49;7.80;99.90
7232;DHT22;3657;49.630;11.018;2023-03-26T02:51:16;7.80;99.90
7232;DHT22;3657;49.630;11.018;2023-03-26T02:53:44;7.80;99.90
7232;DHT22;3657;49.630;11.018;2023-03-26T02:56:12;7.70;99.90
7232;DHT22;3657;49.630;11.018;2023-03-26T02:58:38;7.80;99.90
7232;DHT22;3657;49.630;11.018;2023-03-26T03:01:05;7.70;99.90
7232;DHT22;3657;49.630;11.018;2023-03-26T03:03:33;7.70;99.90
7232;DHT22;3657;49.630;11.018;2023-03-26T03:06:00;7.70;99.90
7232;DHT22;3657;49.630;11.018;2023-03-26T03:08:27;7.70;99.90
7232;DHT22;3657;49.630;11.018;2023-03-26T03:10:56;7.70;99.90
7232;DHT22;3657;49.630;11.018;2023-03-26T03:13:23;7.70;99.90
7232;DHT22;3657;49.630;11.018;2023-03-26T03:15:50;7.70;99.90
7232;DHT22;3657;49.630;11.018;2023-03-26T03:18:17;7.60;99.90
7232;DHT22;3657;49.630;11.018;2023-03-26T03:20:45;7.60;99.90
7232;DHT22;3657;49.630;11.018;2023-03-26T03:23:13;7.60;99.90
7232;DHT22;3657;49.630;11.018;2023-03-26T03:25:40;7.60;99.90
7232;DHT22;3657;49.630;11.018;2023-03-26T03:28:08;7.60;99.90
7232;DHT22;3657;49.630;11.018;2023-03-26T03:30:35;7.50;99.90
7232;DHT22;3657;49.630;11.018;2023-03-26T03:33:02;7.50;99.90
7232;DHT22;3657;49.630;11.018;2023-03-26T03:35:30;7.50;99.90
7232;DHT22;3657;49.630;11.018;2023-03-26T03:37:59;7.50;99.90
7232;DHT22;3657;49.630;11.018;2023-03-26T03:40:26;7.50;99.90
7232;DHT22;3657;49.630;11.018;2023-03-26T03:42:53;7.40;99.90
7232;DHT22;3657;49.630;11.018;2023-03-26T03:45:20;7.40;99.90
7232;DHT22;3657;49.630;11.018;2023-03-26T03:47:46;7.40;99.90
7232;DHT22;3657;49.630;11.018;2023-03-26T03:50:13;7.40;99.90
7232;DHT22;3657;49.630;11.018;2023-03-26T03:52:40;7.40;99.90
7232;DHT22;3657;49.630;11.018;2023-03-26T03:55:08;7.40;99.90
7232;DHT22;3657;49.630;11.018;2023-03-26T03:57:35;7.40;99.90
7232;DHT22;3657;49.630;11.018;2023-03-26T04:00:03;7.40;99.90
7232;DHT22;3657;49.630;11.018;2023-03-26T04:02:31;7.30;99.90
7232;DHT22;3657;49.630;11.018;2023-03-26T04:04:59;7.30;99.90
7232;DHT22;3657;49.630;11.018;2023-03-26T04:07:27;7.30;99.90
7232;DHT22;3657;49.630;11.018;2023-03-26T04:09:56;7.30;99.90
7232;DHT22;3657;49.630;11.018;2023-03-26T04:12:25;7.30;99.90
7232;DHT22;3657;49.630;11.018;2023-03-26T04:14:53;7.30;99.90
7232;DHT22;3657;49.630;11.018;2023-03-26T04:17:20;7.30;99.90
7232;DHT22;3657;49.630;11.018;2023-03-26T04:19:47;7.30;99.90
7232;DHT22;3657;49.630;11.018;2023-03-26T04:22:14;7.30;99.90
7232;DHT22;3657;49.630;11.018;2023-03-26T04:24:43;7.30;99.90
7232;DHT22;3657;49.630;11.018;2023-03-26T04:27:12;7.30;99.90
7232;DHT22;3657;49.630;11.018;2023-03-26T04:29:43;7.20;99.90
7232;DHT22;3657;49.630;11.018;2023-03-26T04:32:15;7.20;99.90
7232;DHT22;3657;49.630;11.018;2023-03-26T04:34:44;7.20;99.90
7232;DHT22;3657;49.630;11.018;2023-03-26T04:37:18;7.20;99.90
7232;DHT22;3657;49.630;11.018;2023-03-26T04:39:48;7.20;99.90
7232;DHT22;3657;49.630;11.018;2023-03-26T04:42:15;7.20;99.90
7232;DHT22;3657;49.630;11.018;2023-03-26T04:44:45;7.20;99.90
7232;DHT22;3657;49.630;11.018;2023-03-26T04:47:15;7.20;99.90
7232;DHT22;3657;49.630;11.018;2023-03-26T04:49:42;7.20;99.90
7232;DHT22;3657;49.630;11.018;2023-03-26T04:52:09;7.20;99.90
7232;DHT22;3657;49.630;11.018;2023-03-26T04:54:36;7.10;99.90
7232;DHT22;3657;49.630;11.018;2023-03-26T04:57:06;7.10;99.90
7232;DHT22;3657;49.630;11.018;2023-03-26T04:59:34;7.10;99.90
7232;DHT22;3657;49.630;11.018;2023-03-26T05:02:04;7.10;99.90
7232;DHT22;3657;49.630;11.018;2023-03-26T05:04:31;7.10;99.90
7232;DHT22;3657;49.630;11.018;2023-03-26T05:06:59;7.10;99.90
7232;DHT22;3657;49.630;11.018;2023-03-26T05:09:27;7.10;99.90
7232;DHT22;3657;49.630;11.018;2023-03-26T05:11:54;7.10;99.90
7232;DHT22;3657;49.630;11.018;2023-03-26T05:14:21;7.10;99.90
7232;DHT22;3657;49.630;11.018;2023-03-26T05:16:48;7.10;99.90
7232;DHT22;3657;49.630;11.018;2023-03-26T05:19:19;7.10;99.90
7232;DHT22;3657;49.630;11.018;2023-03-26T05:21:45;7.10;99.90
7232;DHT22;3657;49.630;11.018;2023-03-26T05:24:12;7.10;99.90
7232;DHT22;3657;49.630;11.018;2023-03-26T05:26:39;7.10;99.90
7232;DHT22;3657;49.630;11.018;2023-03-26T05:29:05;7.10;99.90
7232;DHT22;3657;49.630;11.018;2023-03-26T05:31:32;7.10;99.90
7232;DHT22;3657;49.630;11.018;2023-03-26T05:33:59;7.10;99.90
7232;DHT22;3657;49.630;11.018;2023-03-26T05:36:27;7.00;99.90
7232;DHT22;3657;49.630;11.018;2023-03-26T05:38:54;7.10;99.90
7232;DHT22;3657;49.630;11.018;2023-03-26T05:41:20;7.00;99.90
7232;DHT22;3657;49.630;11.018;2023-03-26T05:43:47;7.10;99.90
7232;DHT22;3657;49.630;11.018;2023-03-26T05:46:14;7.00;99.90
7232;DHT22;3657;49.630;11.018;2023-03-26T05:48:41;7.00;99.90
7232;DHT22;3657;49.630;11.018;2023-03-26T05:51:08;7.00;99.90
7232;DHT22;3657;49.630;11.018;2023-03-26T05:53:36;7.00;99.90
7232;DHT22;3657;49.630;11.018;2023-03-26T05:56:03;7.00;99.90
7232;DHT22;3657;49.630;11.018;2023-03-26T05:58:31;7.00;99.90
7232;DHT22;3657;49.630;11.018;2023-03-26T06:00:59;7.00;99.90
7232;DHT22;3657;49.630;11.018;2023-03-26T06:03:27;7.00;99.90
7232;DHT22;3657;49.630;11.018;2023-03-26T06:05:54;7.00;99.90
7232;DHT22;3657;49.630;11.018;2023-03-26T06:08:20;7.10;99.90
7232;DHT22;3657;49.630;11.018;2023-03-26T06:10:49;7.10;99.90
7232;DHT22;3657;49.630;11.018;2023-03-26T06:13:16;7.10;99.90
7232;DHT22;3657;49.630;11.018;2023-03-26T06:15:43;7.10;99.90
7232;DHT22;3657;49.630;11.018;2023-03-26T06:18:10;7.20;99.90
7232;DHT22;3657;49.630;11.018;2023-03-26T06:20:37;7.20;99.90
7232;DHT22;3657;49.630;11.018;2023-03-26T06:23:06;7.30;99.90
7232;DHT22;3657;49.630;11.018;2023-03-26T06:25:32;7.30;99.90
7232;DHT22;3657;49.630;11.018;2023-03-26T06:28:00;7.40;99.90
7232;DHT22;3657;49.630;11.018;2023-03-26T06:30:27;7.40;99.90
7232;DHT22;3657;49.630;11.018;2023-03-26T06:32:54;7.40;99.90
7232;DHT22;3657;49.630;11.018;2023-03-26T06:35:20;7.40;99.90
7232;DHT22;3657;49.630;11.018;2023-03-26T06:37:47;7.40;99.90
7232;DHT22;3657;49.630;11.018;2023-03-26T06:40:14;7.40;99.90
7232;DHT22;3657;49.630;11.018;2023-03-26T06:42:40;7.40;99.90
7232;DHT22;3657;49.630;11.018;2023-03-26T06:45:09;7.40;99.90
7232;DHT22;3657;49.630;11.018;2023-03-26T06:47:36;7.40;99.90
7232;DHT22;3657;49.630;11.018;2023-03-26T06:50:04;7.40;99.90
7232;DHT22;3657;49.630;11.018;2023-03-26T06:52:31;7.50;99.90
7232;DHT22;3657;49.630;11.018;2023-03-26T06:54:57;7.50;99.90
7232;DHT22;3657;49.630;11.018;2023-03-26T06:57:24;7.50;99.90
7232;DHT22;3657;49.630;11.018;2023-03-26T06:59:51;7.50;99.90
7232;DHT22;3657;49.630;11.018;2023-03-26T07:02:19;7.50;99.90
7232;DHT22;3657;49.630;11.018;2023-03-26T07:04:45;7.60;99.90
7232;DHT22;3657;49.630;11.018;2023-03-26T07:07:12;7.50;99.90
7232;DHT22;3657;49.630;11.018;2023-03-26T07:09:39;7.50;99.90
7232;DHT22;3657;49.630;11.018;2023-03-26T07:12:06;7.50;99.90
7232;DHT22;3657;49.630;11.018;2023-03-26T07:14:32;7.50;99.90
7232;DHT22;3657;49.630;11.018;2023-03-26T07:16:59;7.50;99.90
7232;DHT22;3657;49.630;11.018;2023-03-26T07:19:27;7.60;99.90
7232;DHT22;3657;49.630;11.018;2023-03-26T07:21:54;7.60;99.90
7232;DHT22;3657;49.630;11.018;2023-03-26T07:24:21;7.60;99.90
7232;DHT22;3657;49.630;11.018;2023-03-26T07:26:54;7.60;99.90
7232;DHT22;3657;49.630;11.018;2023-03-26T07:29:31;7.50;99.90
7232;DHT22;3657;49.630;11.018;2023-03-26T07:32:06;7.50;99.90
7232;DHT22;3657;49.630;11.018;2023-03-26T07:34:47;7.50;99.90
7232;DHT22;3657;49.630;11.018;2023-03-26T07:37:29;7.50;99.90
7232;DHT22;3657;49.630;11.018;2023-03-26T07:39:59;7.50;99.90
7232;DHT22;3657;49.630;11.018;2023-03-26T07:42:37;7.50;99.90
7232;DHT22;3657;49.630;11.018;2023-03-26T07:45:16;7.50;99.90
7232;DHT22;3657;49.630;11.018;2023-03-26T07:47:46;7.60;99.90
7232;DHT22;3657;49.630;11.018;2023-03-26T07:50:17;7.60;99.90
7232;DHT22;3657;49.630;11.018;2023-03-26T07:52:45;7.60;99.90
7232;DHT22;3657;49.630;11.018;2023-03-26T07:55:12;7.60;99.90
7232;DHT22;3657;49.630;11.018;2023-03-26T07:57:46;7.70;99.90
7232;DHT22;3657;49.630;11.018;2023-03-26T08:00:18;7.70;99.90
7232;DHT22;3657;49.630;11.018;2023-03-26T08:03:11;7.70;99.90
7232;DHT22;3657;49.630;11.018;2023-03-26T08:05:47;7.70;99.90
7232;DHT22;3657;49.630;11.018;2023-03-26T08:08:20;7.70;99.90
7232;DHT22;3657;49.630;11.018;2023-03-26T08:11:04;7.80;99.90
7232;DHT22;3657;49.630;11.018;2023-03-26T08:13:38;7.80;99.90
7232;DHT22;3657;49.630;11.018;2023-03-26T08:16:13;7.80;99.90
7232;DHT22;3657;49.630;11.018;2023-03-26T08:18:50;7.70;99.90
7232;DHT22;3657;49.630;11.018;2023-03-26T08:21:23;7.70;99.90
7232;DHT22;3657;49.630;11.018;2023-03-26T08:24:07;7.70;99.90
7232;DHT22;3657;49.630;11.018;2023-03-26T08:26:41;7.70;99.90
7232;DHT22;3657;49.630;11.018;2023-03-26T08:29:17;7.70;99.90
7232;DHT22;3657;49.630;11.018;2023-03-26T08:31:47;7.60;99.90
7232;DHT22;3657;49.630;11.018;2023-03-26T08:34:14;7.60;99.90
7232;DHT22;3657;49.630;11.018;2023-03-26T08:36:42;7.60;99.90
7232;DHT22;3657;49.630;11.018;2023-03-26T08:39:09;7.60;99.90
7232;DHT22;3657;49.630;11.018;2023-03-26T08:42:05;7.60;99.90
7232;DHT22;3657;49.630;11.018;2023-03-26T08:47:56;7.70;99.90
7232;DHT22;3657;49.630;11.018;2023-03-26T08:50:53;7.70;99.90
7232;DHT22;3657;49.630;11.018;2023-03-26T08:53:40;7.70;99.90
7232;DHT22;3657;49.630;11.018;2023-03-26T08:56:18;7.70;99.90
7232;DHT22;3657;49.630;11.018;2023-03-26T08:59:13;7.70;99.90
7232;DHT22;3657;49.630;11.018;2023-03-26T09:02:09;7.80;99.90
7232;DHT22;3657;49.630;11.018;2023-03-26T09:05:01;7.90;99.90
7232;DHT22;3657;49.630;11.018;2023-03-26T09:10:50;7.90;99.90
7232;DHT22;3657;49.630;11.018;2023-03-26T09:13:41;7.90;99.90
7232;DHT22;3657;49.630;11.018;2023-03-26T09:16:32;7.90;99.90
7232;DHT22;3657;49.630;11.018;2023-03-26T09:19:34;7.90;99.90
7232;DHT22;3657;49.630;11.018;2023-03-26T09:22:33;7.90;99.90
7232;DHT22;3657;49.630;11.018;2023-03-26T09:31:27;7.90;99.90
7232;DHT22;3657;49.630;11.018;2023-03-26T09:34:16;8.00;99.90
7232;DHT22;3657;49.630;11.018;2023-03-26T09:36:53;8.00;99.90
7232;DHT22;3657;49.630;11.018;2023-03-26T09:39:33;8.00;99.90
7232;DHT22;3657;49.630;11.018;2023-03-26T09:42:07;7.90;99.90
7232;DHT22;3657;49.630;11.018;2023-03-26T09:45:20;7.90;99.90
7232;DHT22;3657;49.630;11.018;2023-03-26T09:48:07;7.90;99.90
7232;DHT22;3657;49.630;11.018;2023-03-26T09:50:51;7.90;99.90
7232;DHT22;3657;49.630;11.018;2023-03-26T09:53:46;7.90;99.90
7232;DHT22;3657;49.630;11.018;2023-03-26T09:56:24;7.90;99.90
7232;DHT22;3657;49.630;11.018;2023-03-26T09:59:21;7.90;99.90
7232;DHT22;3657;49.630;11.018;2023-03-26T10:01:57;7.80;99.90
7232;DHT22;3657;49.630;11.018;2023-03-26T10:04:46;7.80;99.90
7232;DHT22;3657;49.630;11.018;2023-03-26T10:07:34;7.90;99.90
7232;DHT22;3657;49.630;11.018;2023-03-26T10:10:10;7.90;99.90
7232;DHT22;3657;49.630;11.018;2023-03-26T10:12:42;7.90;99.90
7232;DHT22;3657;49.630;11.018;2023-03-26T10:15:23;7.90;99.90
7232;DHT22;3657;49.630;11.018;2023-03-26T10:18:03;7.90;99.90
7232;DHT22;3657;49.630;11.018;2023-03-26T10:20:50;7.90;99.90
7232;DHT22;3657;49.630;11.018;2023-03-26T10:23:38;8.00;99.90
7232;DHT22;3657;49.630;11.018;2023-03-26T10:26:18;8.00;99.90
7232;DHT22;3657;49.630;11.018;2023-03-26T10:29:02;8.00;99.90
7232;DHT22;3657;49.630;11.018;2023-03-26T10:31:38;8.00;99.90
7232;DHT22;3657;49.630;11.018;2023-03-26T10:37:05;8.00;99.90
7232;DHT22;3657;49.630;11.018;2023-03-26T10:42:48;7.90;99.90
7232;DHT22;3657;49.630;11.018;2023-03-26T10:45:35;8.00;99.90
7232;DHT22;3657;49.630;11.018;2023-03-26T10:48:27;8.00;99.90
7232;DHT22;3657;49.630;11.018;2023-03-26T10:51:23;8.00;99.90
7232;DHT22;3657;49.630;11.018;2023-03-26T10:53:53;8.10;99.90
7232;DHT22;3657;49.630;11.018;2023-03-26T10:56:31;8.10;99.90
7232;DHT22;3657;49.630;11.018;2023-03-26T10:59:05;8.10;99.90
7232;DHT22;3657;49.630;11.018;2023-03-26T11:01:38;8.10;99.90
7232;DHT22;3657;49.630;11.018;2023-03-26T11:04:17;8.20;99.90
7232;DHT22;3657;49.630;11.018;2023-03-26T11:06:53;8.20;99.90
7232;DHT22;3657;49.630;11.018;2023-03-26T11:09:29;8.20;99.90
7232;DHT22;3657;49.630;11.018;2023-03-26T11:12:05;8.20;99.90
7232;DHT22;3657;49.630;11.018;2023-03-26T11:14:41;8.20;99.90
7232;DHT22;3657;49.630;11.018;2023-03-26T11:17:14;8.20;99.90
7232;DHT22;3657;49.630;11.018;2023-03-26T11:19:49;8.20;99.90
7232;DHT22;3657;49.630;11.018;2023-03-26T11:22:24;8.30;99.90
7232;DHT22;3657;49.630;11.018;2023-03-26T11:25:03;8.30;99.90
7232;DHT22;3657;49.630;11.018;2023-03-26T11:27:46;8.30;99.90
7232;DHT22;3657;49.630;11.018;2023-03-26T11:30:22;8.30;99.90
7232;DHT22;3657;49.630;11.018;2023-03-26T11:32:55;8.30;99.90
7232;DHT22;3657;49.630;11.018;2023-03-26T11:35:25;8.40;99.90
7232;DHT22;3657;49.630;11.018;2023-03-26T11:37:58;8.40;99.90
7232;DHT22;3657;49.630;11.018;2023-03-26T11:40:30;8.40;99.90
7232;DHT22;3657;49.630;11.018;2023-03-26T11:43:00;8.30;99.90
7232;DHT22;3657;49.630;11.018;2023-03-26T11:45:29;8.30;99.90
7232;DHT22;3657;49.630;11.018;2023-03-26T11:48:01;8.30;99.90
7232;DHT22;3657;49.630;11.018;2023-03-26T11:50:36;8.30;99.90
7232;DHT22;3657;49.630;11.018;2023-03-26T11:53:11;8.20;99.90
7232;DHT22;3657;49.630;11.018;2023-03-26T11:55:43;8.30;99.90
7232;DHT22;3657;49.630;11.018;2023-03-26T11:58:22;8.30;99.90
7232;DHT22;3657;49.630;11.018;2023-03-26T12:00:50;8.30;99.90
7232;DHT22;3657;49.630;11.018;2023-03-26T12:03:18;8.30;99.90
7232;DHT22;3657;49.630;11.018;2023-03-26T12:05:48;8.40;99.90
7232;DHT22;3657;49.630;11.018;2023-03-26T12:08:25;8.40;99.90
7232;DHT22;3657;49.630;11.018;2023-03-26T12:11:06;8.40;99.90
7232;DHT22;3657;49.630;11.018;2023-03-26T12:13:38;8.20;99.90
7232;DHT22;3657;49.630;11.018;2023-03-26T12:16:10;8.20;99.90
7232;DHT22;3657;49.630;11.018;2023-03-26T12:18:38;8.20;99.90
7232;DHT22;3657;49.630;11.018;2023-03-26T12:21:08;8.30;99.90
7232;DHT22;3657;49.630;11.018;2023-03-26T12:23:42;8.30;99.90
7232;DHT22;3657;49.630;11.018;2023-03-26T12:26:16;8.40;99.90
7232;DHT22;3657;49.630;11.018;2023-03-26T12:28:45;8.50;99.90
7232;DHT22;3657;49.630;11.018;2023-03-26T12:31:12;8.50;99.90
7232;DHT22;3657;49.630;11.018;2023-03-26T12:33:43;8.50;99.90
7232;DHT22;3657;49.630;11.018;2023-03-26T12:36:19;8.60;99.90
7232;DHT22;3657;49.630;11.018;2023-03-26T12:38:49;8.60;99.90
7232;DHT22;3657;49.630;11.018;2023-03-26T12:41:17;8.70;99.90
7232;DHT22;3657;49.630;11.018;2023-03-26T12:43:46;8.80;99.90
7232;DHT22;3657;49.630;11.018;2023-03-26T12:46:22;8.90;99.90
7232;DHT22;3657;49.630;11.018;2023-03-26T12:48:50;9.00;99.90
7232;DHT22;3657;49.630;11.018;2023-03-26T12:51:28;9.10;99.90
7232;DHT22;3657;49.630;11.018;2023-03-26T12:54:17;9.20;99.90
7232;DHT22;3657;49.630;11.018;2023-03-26T12:56:54;9.30;99.90
7232;DHT22;3657;49.630;11.018;2023-03-26T12:59:42;9.50;99.90
7232;DHT22;3657;49.630;11.018;2023-03-26T13:02:24;9.70;99.90
7232;DHT22;3657;49.630;11.018;2023-03-26T13:05:07;10.00;99.90
7232;DHT22;3657;49.630;11.018;2023-03-26T13:07:50;10.20;99.90
7232;DHT22;3657;49.630;11.018;2023-03-26T13:10:35;10.50;99.90
7232;DHT22;3657;49.630;11.018;2023-03-26T13:13:16;10.80;99.90
7232;DHT22;3657;49.630;11.018;2023-03-26T13:15:48;11.10;99.90
7232;DHT22;3657;49.630;11.018;2023-03-26T13:18:23;11.10;99.90
7232;DHT22;3657;49.630;11.018;2023-03-26T13:20:56;11.10;99.90
7232;DHT22;3657;49.630;11.018;2023-03-26T13:23:32;11.20;99.90
7232;DHT22;3657;49.630;11.018;2023-03-26T13:26:10;11.20;99.90
7232;DHT22;3657;49.630;11.018;2023-03-26T13:28:44;11.30;99.90
7232;DHT22;3657;49.630;11.018;2023-03-26T13:31:17;11.30;99.90
7232;DHT22;3657;49.630;11.018;2023-03-26T13:33:52;11.40;99.90
7232;DHT22;3657;49.630;11.018;2023-03-26T13:36:28;11.40;99.90
7232;DHT22;3657;49.630;11.018;2023-03-26T13:39:06;11.40;99.90
7232;DHT22;3657;49.630;11.018;2023-03-26T13:41:49;11.40;99.90
7232;DHT22;3657;49.630;11.018;2023-03-26T13:44:27;11.30;99.90
7232;DHT22;3657;49.630;11.018;2023-03-26T13:46:59;11.30;99.90
7232;DHT22;3657;49.630;11.018;2023-03-26T13:49:33;11.30;99.90
7232;DHT22;3657;49.630;11.018;2023-03-26T13:52:06;11.30;99.90
7232;DHT22;3657;49.630;11.018;2023-03-26T13:54:36;11.20;99.90
7232;DHT22;3657;49.630;11.018;2023-03-26T13:57:12;11.30;99.90
7232;DHT22;3657;49.630;11.018;2023-03-26T13:59:44;11.30;99.90
7232;DHT22;3657;49.630;11.018;2023-03-26T14:02:19;11.30;99.90
7232;DHT22;3657;49.630;11.018;2023-03-26T14:04:51;11.30;99.90
7232;DHT22;3657;49.630;11.018;2023-03-26T14:07:21;11.40;99.90
7232;DHT22;3657;49.630;11.018;2023-03-26T14:09:52;11.30;99.90
7232;DHT22;3657;49.630;11.018;2023-03-26T14:12:27;11.40;99.90
7232;DHT22;3657;49.630;11.018;2023-03-26T14:14:59;11.40;99.90
7232;DHT22;3657;49.630;11.018;2023-03-26T14:17:33;11.40;99.90
7232;DHT22;3657;49.630;11.018;2023-03-26T14:20:25;11.40;99.90
7232;DHT22;3657;49.630;11.018;2023-03-26T14:23:04;11.40;99.90
7232;DHT22;3657;49.630;11.018;2023-03-26T14:25:44;11.40;99.90
7232;DHT22;3657;49.630;11.018;2023-03-26T14:28:30;11.40;99.90
7232;DHT22;3657;49.630;11.018;2023-03-26T14:31:16;11.50;99.90
7232;DHT22;3657;49.630;11.018;2023-03-26T14:33:57;11.50;99.90
7232;DHT22;3657;49.630;11.018;2023-03-26T14:36:47;11.60;99.90
7232;DHT22;3657;49.630;11.018;2023-03-26T14:39:30;11.60;99.90
7232;DHT22;3657;49.630;11.018;2023-03-26T14:42:07;11.70;99.90
7232;DHT22;3657;49.630;11.018;2023-03-26T14:47:41;12.00;99.90
7232;DHT22;3657;49.630;11.018;2023-03-26T14:50:37;12.10;99.90
7232;DHT22;3657;49.630;11.018;2023-03-26T14:53:16;12.20;99.90
7232;DHT22;3657;49.630;11.018;2023-03-26T14:56:14;12.30;99.90
7232;DHT22;3657;49.630;11.018;2023-03-26T14:59:07;12.30;99.90
7232;DHT22;3657;49.630;11.018;2023-03-26T15:01:59;12.30;99.90
7232;DHT22;3657;49.630;11.018;2023-03-26T15:04:46;12.40;99.90
7232;DHT22;3657;49.630;11.018;2023-03-26T15:10:39;12.50;99.90
7232;DHT22;3657;49.630;11.018;2023-03-26T15:13:43;12.60;99.90
7232;DHT22;3657;49.630;11.018;2023-03-26T15:19:44;12.70;99.90
7232;DHT22;3657;49.630;11.018;2023-03-26T15:25:49;12.90;99.90
7232;DHT22;3657;49.630;11.018;2023-03-26T15:28:52;12.80;99.90
7232;DHT22;3657;49.630;11.018;2023-03-26T15:37:52;12.80;99.90
7232;DHT22;3657;49.630;11.018;2023-03-26T15:40:33;12.80;99.90
7232;DHT22;3657;49.630;11.018;2023-03-26T15:43:07;12.80;99.90
7232;DHT22;3657;49.630;11.018;2023-03-26T15:45:36;12.70;99.90
7232;DHT22;3657;49.630;11.018;2023-03-26T15:48:27;12.70;99.90
7232;DHT22;3657;49.630;11.018;2023-03-26T15:51:12;12.70;99.90
7232;DHT22;3657;49.630;11.018;2023-03-26T15:53:46;12.80;99.90
7232;DHT22;3657;49.630;11.018;2023-03-26T15:56:24;12.70;99.90
7232;DHT22;3657;49.630;11.018;2023-03-26T15:59:00;12.70;99.90
7232;DHT22;3657;49.630;11.018;2023-03-26T16:01:42;12.70;99.90
7232;DHT22;3657;49.630;11.018;2023-03-26T16:04:19;12.70;99.90
7232;DHT22;3657;49.630;11.018;2023-03-26T16:06:56;12.60;99.90
7232;DHT22;3657;49.630;11.018;2023-03-26T16:09:37;12.70;99.90
7232;DHT22;3657;49.630;11.018;2023-03-26T16:12:32;12.60;99.90
7232;DHT22;3657;49.630;11.018;2023-03-26T16:15:18;12.60;99.90
7232;DHT22;3657;49.630;11.018;2023-03-26T16:21:01;12.50;99.90
7232;DHT22;3657;49.630;11.018;2023-03-26T16:23:33;12.50;99.90
7232;DHT22;3657;49.630;11.018;2023-03-26T16:26:14;12.50;99.90
7232;DHT22;3657;49.630;11.018;2023-03-26T16:29:07;12.50;99.90
7232;DHT22;3657;49.630;11.018;2023-03-26T16:32:03;12.50;99.90
7232;DHT22;3657;49.630;11.018;2023-03-26T16:34:37;12.40;99.90
7232;DHT22;3657;49.630;11.018;2023-03-26T16:37:34;12.40;99.90
7232;DHT22;3657;49.630;11.018;2023-03-26T16:40:30;12.30;99.90
7232;DHT22;3657;49.630;11.018;2023-03-26T16:45:54;12.30;99.90
7232;DHT22;3657;49.630;11.018;2023-03-26T16:48:29;12.20;99.90
7232;DHT22;3657;49.630;11.018;2023-03-26T16:51:04;12.10;99.90
7232;DHT22;3657;49.630;11.018;2023-03-26T16:53:38;12.10;99.90
7232;DHT22;3657;49.630;11.018;2023-03-26T16:56:15;12.00;99.90
7232;DHT22;3657;49.630;11.018;2023-03-26T16:58:53;12.00;99.90
7232;DHT22;3657;49.630;11.018;2023-03-26T17:01:27;12.00;99.90
7232;DHT22;3657;49.630;11.018;2023-03-26T17:03:59;11.90;99.90
7232;DHT22;3657;49.630;11.018;2023-03-26T17:06:35;11.90;99.90
7232;DHT22;3657;49.630;11.018;2023-03-26T17:09:17;11.90;99.90
7232;DHT22;3657;49.630;11.018;2023-03-26T17:11:55;11.90;99.90
7232;DHT22;3657;49.630;11.018;2023-03-26T17:14:32;11.80;99.90
7232;DHT22;3657;49.630;11.018;2023-03-26T17:17:17;11.70;99.90
7232;DHT22;3657;49.630;11.018;2023-03-26T17:19:53;11.70;99.90
7232;DHT22;3657;49.630;11.018;2023-03-26T17:22:32;11.60;99.90
7232;DHT22;3657;49.630;11.018;2023-03-26T17:25:10;11.60;99.90